Ride Results

Gulgong Gold Rush (22-06-2008)
Ride distance: 80.0 km

Outcomes - Gulgong Gold Rush (22-06-2008)
Division No. of Entries Retired / DNE Completed Withdrawn Ineligible V/O Percentage Completed
HW 34 - 30 - - 4 88.24%
MW 56 - 45 1 - 10 80.36%
LW 17 - 14 1 - 2 82.35%
JN 7 - 6 - - 1 85.71%
Totals 114 - 95 2 - 17 83.33%
Results - Gulgong Gold Rush (22-06-2008)
No. Rider Horse Place Time Leg Speeds Total
Km/Hr
H/R bpm
Heavyweight
152 Steve Brisbane Halimas Ibn Rusima 1 4:12:00 20.3, 17.9 19.05 34, 42, 54 (Avg:48)
127 Paddy Smith Nurelee Talisman 1 4:12:00 19.9, 18.1 19.05 36, 40, 47 (Avg:43)
115 Stuart Hitchcock Farras 3 (BC) 4:13:00 18.0, 19.9 18.97 32, 42, 44 (Avg:43)
120 Michael Boland A'Landell Karlinta 4 4:18:00 20.3, 17.1 18.60 36, 45, 48 (Avg:46)
123 Len Derkacz Torryburn Rahal 5 4:23:00 19.5, 17.1 18.25 33, 40, 50 (Avg:45)
126 Kym Hagon Diamond R Boston 6 4:28:00 19.6, 16.4 17.91 38, 32, 44 (Avg:38)
138 Allan Caslick Parlour Mountain Khancoban 7 4:40:00 16.6, 17.6 17.14 34, 42, 45 (Avg:43)
122 Duncan Satchell Alhambra Mirage 8 4:44:00 17.0, 16.7 16.90 38, 38, 45 (Avg:41)
137 Rod Mitchell Aloha Naja 9 4:57:00 18.7, 14.2 16.16 29, 40, 48 (Avg:44)
58 Martin Gregson Aloha Kaiser 10 5:12:00 18.0, 13.4 15.38 30, 36, 36 (Avg:36)
141 Mark Harvey Raymar Yasmin (exp BH) 11 5:15:00 16.7, 13.9 15.24 33, 40, 43 (Avg:41)
57 Kristianne Kalen Carnarvon Kasserine Magic 12 5:21:00 17.0, 13.3 14.95 30, 37, 39 (Avg:38)
136 Sue Warren Warren Park O.B. One 13 5:50:00 15.5, 12.2 13.71 36, 39, 48 (Avg:43)
119 Denise Trollope Churinga Goldfire 14 6:02:00 15.1, 11.7 13.26 36, 45, 54 (Avg:49)
130 Bern Harvey Velona Phoenix 15 6:05:00 13.0, 13.2 13.15 49, 36, 48 (Avg:42)
117 Andrew Bailey Aloha Zac 16 6:18:00 13.3, 12.1 12.70 35, 40, 44 (Avg:42)
118 Peter Strickland Cameo Zanadu 16 6:18:00 14.4, 11.3 12.70 44, 44, 47 (Avg:45)
60 Ray Rhodes Karrana King 18 6:19:00 13.3, 12.0 12.66 36, 48, 48 (Avg:48)
121 Con Bouzianis Conderosa Arganaut 19 6:20:00 13.2, 12.0 12.63 40, 41, 39 (Avg:40)
133 John Dawson Aloha Vision 20 6:21:00 13.0, 12.1 12.60 29, 42, 46 (Avg:44)
128 John Robertson Karabil Binyana 21 6:42:00 13.3, 10.8 11.94 40, 52, 54 (Avg:53)
129 James Ryan Karabil Abbra 21 6:42:00 13.3, 10.8 11.94 36, 35, 40 (Avg:37)
106 Jason Duff Kintamani Silver Magnum 23 6:44:00 12.6, 11.1 11.88 36, 32, 44 (Avg:38)
116 Dean Warren Rachem Mustava Heart 24 7:09:00 11.5, 10.8 11.19 38, 40, 42 (Avg:41)
54 Damien Bonham Box Hill Ralph 25 7:11:00 12.0, 10.3 11.14 36, 44, 50 (Avg:47)
135 Haydn Fisher Just Cruising 26 7:21:00 12.1, 9.8 10.88 42, 36, 40 (Avg:38)
124 Frank Mollema Littlebanks Zoom Zoom 27 7:34:00 11.0, 10.1 10.57 33, 39, 40 (Avg:39)
52 Woody Pilley Tuldar Regal Reggie 27 7:34:00 11.0, 10.1 10.57 36, 40, 42 (Avg:41)
125 John Howe Glen Echo Buddy 29 7:49:00 11.5, 9.1 10.23 28, 40, 60 (Avg:50)
134 Mark Lindsay Kintamani Silver Motif 30 7:58:00 11.4, 8.9 10.04 31, 44, 47 (Avg:45)
53 Alex Baczocha Colo Vivette Lame L1 0:00:00 13.1 - 36, 44 (Avg:44)
140 Barry Blinman Waugoola Creek XL Lame L1 0:00:00 13.2 - 31, 38 (Avg:38)
131 Charles Gauci Charleville Lady Heart Rate L1 0:00:00 13.3 - 34, 72 (Avg:72)
56 Peter Terrill Elphyn Desert Storm Lame L1 0:00:00 11.5 - 36, 43 (Avg:43)
Middleweight
63 Rochelle Knihinicki Anabriar Khaboul 1 (BC) 3:52:00 21.0, 20.3 20.69 35, 38, 44 (Avg:41)
33 Jennifer Gilbertson Kurrajong Shadad 2 3:57:00 20.3, 20.1 20.25 33, 39, 45 (Avg:42)
113 Mette Sutton Tuldar The Magician 2 3:57:00 19.8, 20.6 20.25 31, 44, 46 (Avg:45)
86 Blake Freeman Cedar Ridge Divide and Rule 4 4:26:00 18.8, 17.2 18.05 35, 42, 52 (Avg:47)
85 Jason Kirk Cedar Ridge Desert Express 4 4:26:00 18.8, 17.2 18.05 46, 40, 47 (Avg:43)
68 Jamie Mollema Billywillinga Rocky 6 4:27:00 18.7, 17.2 17.98 32, 33, 37 (Avg:35)
100 Ruth Van der Wegen Mingari Downs Blue Thunder 7 4:40:00 16.6, 17.6 17.14 28, 37, 39 (Avg:38)
62 Neroli Mitchell- Cooper Bilbo 8 4:47:00 17.9, 15.6 16.72 32, 40, 48 (Avg:44)
65 Raymond Griffiths Alhambra Jazz Dancer 9 4:51:00 17.9, 15.2 16.49 38, 42, 47 (Avg:44)
64 Carol Griffiths Oak-Glen Isis 9 4:51:00 17.9, 15.2 16.49 38, 36, 38 (Avg:37)
114 April Bonham Joda Shantilly 11 5:12:00 18.0, 13.4 15.38 38, 48, 52 (Avg:50)
70 Bernice King Noble Navaar Destiny 12 5:50:00 15.0, 12.5 13.71 36, 40, 40 (Avg:40)
81 Carol Major Major Luke 12 5:50:00 15.5, 12.2 13.71 38, 48, 44 (Avg:46)
92 Allison Knihinicki Tuldar Desert Falcon 14 5:51:00 12.3, 15.2 13.68 31, 39, 39 (Avg:39)
105 Tami Parnell Woodbourne Sharnikan 14 5:51:00 15.1, 12.4 13.68 36, 40, 44 (Avg:42)
108 Kristy Waddell Box Hill Glider 16 5:58:00 14.2, 12.6 13.41 40, 40, 40 (Avg:40)
109 Patricia Waddell Box Hill Tonderburine 16 5:58:00 14.2, 12.6 13.41 35, 45, 42 (Avg:43)
95 Hannah Barton Naz-ton Count Buccaneer 18 6:01:00 15.6, 11.5 13.30 35, 51, 44 (Avg:47)
67 Garry Bennett Karabil Yaningi 19 6:03:00 13.1, 13.3 13.22 36, 36, 42 (Avg:39)
82 Garry Weis Tuldar Slingshot 19 6:03:00 13.2, 13.1 13.22 40, 40, 41 (Avg:40)
72 Emma Fletcher Mahazin Khomet 21 6:05:00 19.6, 9.8 13.15 34, 43, 47 (Avg:45)
97 Fiona Meller Malu Vale Embers 22 6:08:00 13.8, 12.3 13.04 33, 44, 44 (Avg:44)
73 Peter Kelly Kerewong Raphael 23 6:09:00 13.0, 12.9 13.01 37, 44, 48 (Avg:46)
84 Lindsay Hine Lasaan 24 6:15:00 12.9, 12.6 12.80 39, 41, 43 (Avg:42)
111 Annette Bailey Razorback Red Domino 25 6:17:00 13.3, 12.1 12.73 36, 41, 48 (Avg:44)
94 Suzanne Barton Red Storm 25 6:17:00 15.6, 10.7 12.73 38, 38, 36 (Avg:37)
71 Renee Kirk Cherox Assassin 25 6:17:00 14.4, 11.3 12.73 41, 46, 48 (Avg:47)
96 Terry Wood Tallawarra Chance 28 6:22:00 13.1, 11.9 12.57 33, 40, 44 (Avg:42)
98 Katrina Bodewes Tallawarra Jalibur 29 6:23:00 13.1, 11.9 12.53 36, 46, 56 (Avg:51)
99 Lynn Coles Pinedene Robbie 30 6:29:00 13.7, 11.1 12.34 35, 48, 53 (Avg:50)
80 Jane Martin Gandari Alva Caasteele 31 6:36:00 14.9, 10.1 12.12 38, 48, 46 (Avg:47)
75 John Symons Forest Dale Belle De Jour 32 6:42:00 12.9, 11.1 11.94 38, 51, 57 (Avg:54)
76 Sheree Gray Happy Joseph 33 6:50:00 13.3, 10.4 11.71 35, 48, 50 (Avg:49)
89 Christie Chapman Semawia Kessier 34 6:57:00 13.7, 9.8 11.51 28, 40, 48 (Avg:44)
77 Kirralee Martin Jamaal 34 6:57:00 12.9, 10.3 11.51 33, 44, 45 (Avg:44)
112 Andrew Blakely Kalkadoon Sharif 36 7:09:00 11.5, 10.8 11.19 44, 42, 43 (Avg:42)
110 Sonia Bonham Box Hill Elnino 37 7:11:00 12.0, 10.3 11.14 36, 39, 42 (Avg:40)
107 Margaret Boland Sylvan Hill Ruby Fire 38 7:26:00 11.9, 9.7 10.76 40, 44, 50 (Avg:47)
101 Sandi Brown Tembisu 38 7:26:00 11.9, 9.7 10.76 34, 40, 46 (Avg:43)
102 Tracy Haack Magic Prague 40 7:27:00 11.9, 9.7 10.74 25, 42, 56 (Avg:49)
90 David Player A'Landell Karem 41 7:28:00 11.3, 10.1 10.71 38, 42, 44 (Avg:43)
32 Emily Streckfuss A'Landell Karrule 41 7:28:00 11.3, 10.1 10.71 36, 40, 42 (Avg:41)
91 Shan Symons Raymar Aria (exp BH) 41 7:28:00 10.7, 10.7 10.71 36, 44, 46 (Avg:45)
87 Melissa Attwell Yarranoo Armalite 44 7:49:00 11.5, 9.1 10.23 38, 48, 46 (Avg:47)
88 Alan Lindsay Kintamani Mistral 45 7:58:00 11.4, 8.9 10.04 38, 38, 40 (Avg:39)
103 Tara Brown Nandawar Silver Shadow Lame L2 0:00:00 11.9, 9.7 - 32, 44, 50 (Avg:47)
74 Gail Fisher Arasarta Narhalinian Lame L2 0:00:00 12.1, 9.8 - 43, 47, 50 (Avg:48)
66 Brian Klatt Salam Zahbeel Lame L2 0:00:00 19.3, 17.2 - 46, 45, 50 (Avg:47)
93 Chris Noonan Bridle Track Dasha Lame L2 0:00:00 16.6, 11.1 - 30, 37, 45 (Avg:41)
78 Susan Pritchard Macquarie Park Dakota Lame L2 0:00:00 12.3, 10.5 - 37, 50, 57 (Avg:53)
104 Jenny Sandford Abrock Shadow Lame L2 0:00:00 17.0, 13.3 - 42, 42, 56 (Avg:49)
170 Katherin Schemann Raymar Lyla Lame L2 0:00:00 16.7, 13.9 - 38, 42, 0 (Avg:21)
79 Brett Willis One Eye Quintex Lame L2 0:00:00 18.8, 17.1 - 30, 36, 35 (Avg:35)
61 Tom Bouzianis Inshallah Rhapsody Withdrawn L1 0:00:00 - - 48, 47 (Avg:47)
59 Karen Rhodes Shadow Lame L1 0:00:00 14.2 - 38, 48 (Avg:48)
83 Marita Rifai A'Landell Spirit Lame L1 0:00:00 13.1 - 38, 43 (Avg:43)
Lightweight
22 Robin Gossip A'Landell Sarlee 1 4:13:00 19.1, 18.7 18.97 31, 42, 42 (Avg:42)
28 Gloria Mills Glendos Sabodie 2 (BC) 4:14:00 19.8, 18.0 18.90 36, 39, 40 (Avg:39)
26 Dianne Luker Kintamani Silver Harmony 3 4:20:00 19.6, 17.3 18.46 24, 38, 43 (Avg:40)
37 Kate Pilley Pancho 4 5:33:00 19.3, 11.4 14.41 34, 42, 41 (Avg:41)
35 Leslee Burrell Larntainey Eureka Gold 5 6:16:00 12.9, 12.5 12.77 35, 46, 48 (Avg:47)
21 Debbie Pevy Conderosa Zoltan 6 6:20:00 13.2, 12.0 12.63 38, 44, 52 (Avg:48)
23 Linda Logan Follydown Topaz 7 6:21:00 16.9, 10.0 12.60 34, 40, 46 (Avg:43)
30 Jan Wade Hajra Leonie 8 6:29:00 14.9, 10.4 12.34 32, 36, 48 (Avg:42)
31 Lee Duff Imparja Minkala 9 6:44:00 12.6, 11.1 11.88 32, 33, 38 (Avg:35)
25 Jacky Barlow A'Landell Koorah 10 6:48:00 13.1, 10.6 11.76 35, 40, 38 (Avg:39)
36 Mary Hollingsworth Henley Farm Khadd 11 6:55:00 13.0, 10.3 11.57 37, 40, 54 (Avg:47)
24 Jennifer McDonald Amarissa 12 7:29:00 13.1, 9.0 10.69 36, 50, 44 (Avg:47)
29 Nikki Tucker Alhambra Khalita 13 7:30:00 11.5, 9.8 10.67 38, 38, 40 (Avg:39)
55 Sonya Ardill Casamir Odessa 14 7:49:00 11.5, 9.1 10.23 36, 43, 46 (Avg:44)
27 Denise Moseley Dashanda Sapphire Lame L2 0:00:00 10.7, 10.7 - 37, 39, 34 (Avg:36)
34 Sonya Nicholls Cherox Coco Withdrawn L1 0:00:00 - - 34, 55 (Avg:55)
69 Fiona Coddington Erin Park Troy Lame P/R 0:00:00 - - 33
Junior
4 Kurt Zonneveld Meltharina Mercury 1 (BC) 5:21:00 17.0, 13.3 14.95 27, 46, 47 (Avg:46)
2 Jasmine Shields Woodbourne Betty 2 5:49:00 19.3, 10.6 13.75 36, 40, 50 (Avg:45)
1 Emma Godber Kintamani Silver Belle 3 6:00:00 13.3, 13.3 13.33 34, 34, 37 (Avg:35)
3 Mia Bodewes Leshal Asrahk 4 6:23:00 13.1, 11.9 12.53 36, 44, 60 (Avg:52)
6 Kimberley Perish Spiderbait 5 7:27:00 11.5, 9.9 10.74 32, 37, 34 (Avg:35)
7 Stacey Booth-Mollema Meroo Downs Dolly 6 7:34:00 11.0, 10.1 10.57 22, 42, 50 (Avg:46)
5 Ben Hudson Mandy Lame L2 0:00:00 12.3, 9.7 - 28, 36, 36 (Avg:36)